Browns Hollow, New York
Current Conditions -  °F | °C
As of 11:15 PM on Friday 19 Dec 2014 (Local Time) from KNY0 Reporting Station
Clear Clear  
Wind Chill: 12°   Ceiling: Unl
Heat Index: 19°   Visibility: 10mi
Dew Point: 15°   Wind: 5mph
Humidity: 83%   Direction: 300°WNW
Pressure: 30.18"   Gusts: NA
Location:  42.8548°N, 74.5942°W
Report Text: KNY0 200415Z AUTO 30004KT 10SM CLR M07/M10 A3018 RMK AO2 T10721096
Loading
Personal Weather Stations






























Interactive Weather Map New forecast layout! Learn more

10-Day Weather Forecast

Advertisements
Track Severe Weather on mobile